Time;durP1;ratioP1;P1;durP2;ratioP2;P2;SDS_P1;SDS_P2;PMS_P1;PMS_P2;Temp;Humidity;BMP_temperature;BMP_pressure;BME280_temperature;BME280_humidity;BME280_pressure;Samples;Min_cycle;Max_cycle;Signal;HPM_P1;HPM_P2
2021/09/21 00:02:18;;;;;;;3.72;2.10;;;;;;;19.34;35.50;102169.06;4970714;28;20047;-73
2021/09/21 00:04:44;;;;;;;4.22;2.20;;;;;;;19.34;35.50;102171.84;4987613;28;20077;-75
2021/09/21 00:07:11;;;;;;;3.25;2.10;;;;;;;19.35;35.54;102167.19;5009598;28;20084;-75
2021/09/21 00:09:37;;;;;;;3.10;2.15;;;;;;;19.34;35.81;102170.97;4983485;28;20042;-75
2021/09/21 00:12:04;;;;;;;3.80;2.50;;;;;;;19.33;35.69;102178.34;4989790;28;20504;-75
2021/09/21 00:14:31;;;;;;;4.05;2.38;;;;;;;19.33;35.37;102182.97;4995185;28;20128;-75
2021/09/21 00:17:02;;;;;;;3.65;2.13;;;;;;;19.32;36.03;102189.47;5009431;28;20140;-75
2021/09/21 00:19:32;;;;;;;3.45;2.20;;;;;;;19.30;35.61;102194.22;4990763;28;20046;-75
2021/09/21 00:22:00;;;;;;;4.65;2.55;;;;;;;19.30;35.83;102195.09;5009237;28;20054;-75
2021/09/21 00:24:26;;;;;;;3.78;2.20;;;;;;;19.29;35.80;102186.97;5004018;28;20515;-75
2021/09/21 00:26:53;;;;;;;3.47;2.20;;;;;;;19.27;35.85;102198.09;4989399;28;20750;-76
2021/09/21 00:29:20;;;;;;;4.38;2.45;;;;;;;19.25;35.60;102202.00;4985273;28;20125;-75
2021/09/21 00:31:55;;;;;;;3.92;2.53;;;;;;;19.24;36.09;102209.38;4969691;28;20043;-75
2021/09/21 00:34:26;;;;;;;4.28;2.63;;;;;;;19.21;35.96;102212.38;4969008;28;20074;-75
2021/09/21 00:36:53;;;;;;;3.28;2.40;;;;;;;19.21;35.65;102208.75;4969889;28;20428;-75
2021/09/21 00:39:20;;;;;;;4.00;2.42;;;;;;;19.18;35.77;102215.41;4971173;28;20125;-76
2021/09/21 00:41:49;;;;;;;3.95;2.58;;;;;;;19.18;36.18;102220.91;5009024;28;20141;-75
2021/09/21 00:44:20;;;;;;;3.85;2.58;;;;;;;19.16;35.97;102222.91;5007508;28;20068;-75
2021/09/21 00:46:48;;;;;;;4.28;2.40;;;;;;;19.11;36.15;102221.50;5008892;28;20129;-75
2021/09/21 00:49:15;;;;;;;3.20;2.28;;;;;;;19.09;35.84;102229.03;5007769;28;20046;-75
2021/09/21 00:51:42;;;;;;;4.32;2.70;;;;;;;19.06;36.27;102232.03;4991138;28;20089;-75
2021/09/21 00:54:09;;;;;;;4.05;2.45;;;;;;;19.04;36.34;102231.25;4968610;28;20481;-75
2021/09/21 00:56:38;;;;;;;4.40;2.58;;;;;;;19.03;36.52;102227.63;4969240;28;20047;-75
2021/09/21 00:59:04;;;;;;;4.72;2.60;;;;;;;19.00;36.07;102214.13;4969557;28;20077;-75
2021/09/21 01:01:31;;;;;;;3.97;2.63;;;;;;;18.99;36.23;102216.00;4969073;28;20514;-75
2021/09/21 01:03:59;;;;;;;3.83;2.42;;;;;;;19.00;36.19;102219.63;4987872;28;20496;-75
2021/09/21 01:06:26;;;;;;;4.18;2.15;;;;;;;18.98;36.54;102221.63;4988343;28;20077;-75
2021/09/21 01:08:53;;;;;;;4.32;2.28;;;;;;;18.98;36.29;102224.38;4988104;28;20046;-75
2021/09/21 01:11:19;;;;;;;4.28;2.30;;;;;;;18.98;36.67;102228.03;5001862;28;20518;-75
2021/09/21 01:13:46;;;;;;;4.15;2.50;;;;;;;18.98;36.46;102221.63;5007012;28;20141;-74
2021/09/21 01:16:12;;;;;;;4.28;2.55;;;;;;;18.99;36.57;102221.50;4996353;28;20511;-75
2021/09/21 01:18:39;;;;;;;5.07;2.53;;;;;;;19.00;36.43;102219.63;4987678;28;20137;-75
2021/09/21 01:21:08;;;;;;;5.78;2.60;;;;;;;19.01;36.42;102224.16;4988539;28;20056;-75
2021/09/21 01:23:53;;;;;;;4.15;2.50;;;;;;;19.00;36.48;102228.78;4987792;28;20054;-75
2021/09/21 01:26:21;;;;;;;4.13;2.47;;;;;;;18.98;36.78;102227.13;5000003;28;20042;-73
2021/09/21 01:28:48;;;;;;;4.43;2.40;;;;;;;18.97;36.43;102225.38;5003321;23;20076;-77
2021/09/21 01:31:15;;;;;;;4.13;2.42;;;;;;;18.95;36.70;102220.00;5032821;28;20059;-77
2021/09/21 01:33:50;;;;;;;4.55;2.40;;;;;;;18.98;36.63;102230.78;5026744;28;20387;-77
2021/09/21 01:36:22;;;;;;;4.53;2.33;;;;;;;18.96;36.51;102229.13;5009319;28;20052;-77
2021/09/21 01:38:49;;;;;;;3.83;2.60;;;;;;;18.91;36.96;102226.75;5026541;28;20554;-77
2021/09/21 01:41:16;;;;;;;3.85;2.30;;;;;;;18.92;36.67;102228.50;5027053;28;20076;-77
2021/09/21 01:43:45;;;;;;;3.70;2.22;;;;;;;18.93;36.95;102229.41;5026972;28;20414;-78
2021/09/21 01:46:16;;;;;;;4.30;2.70;;;;;;;18.94;36.93;102231.16;5027064;28;20141;-77
2021/09/21 01:48:43;;;;;;;4.50;2.60;;;;;;;18.91;36.42;102225.88;5026038;28;20484;-77
2021/09/21 01:51:16;;;;;;;4.95;2.38;;;;;;;18.94;36.96;102222.91;5026907;28;20538;-77
2021/09/21 01:58:57;;;;;;;4.38;2.65;;;;;;;18.89;36.56;102227.88;5039304;28;20083;-79
2021/09/21 02:01:25;;;;;;;4.63;2.47;;;;;;;18.90;36.81;102221.38;5029443;28;20132;-79
2021/09/21 02:03:55;;;;;;;4.72;2.40;;;;;;;18.89;36.55;102228.75;5026033;28;20053;-79
2021/09/21 02:06:28;;;;;;;4.40;2.70;;;;;;;18.84;36.79;102228.25;5026464;28;20048;-78
2021/09/21 02:08:54;;;;;;;3.78;2.60;;;;;;;18.79;36.89;102226.84;5026042;28;20413;-78
2021/09/21 02:11:21;;;;;;;4.88;2.80;;;;;;;18.79;37.15;102227.72;5008609;28;20053;-79
2021/09/21 02:13:47;;;;;;;4.50;2.85;;;;;;;18.78;37.24;102239.72;5024195;28;20264;-79
2021/09/21 02:16:14;;;;;;;5.45;2.53;;;;;;;18.75;37.18;102241.88;5026804;28;20073;-78
2021/09/21 02:18:40;;;;;;;4.85;3.30;;;;;;;18.73;36.86;102236.47;5025982;28;20124;-79
2021/09/21 02:21:07;;;;;;;5.32;2.55;;;;;;;18.70;37.26;102238.59;5008918;28;20487;-79
2021/09/21 02:23:33;;;;;;;4.65;2.63;;;;;;;18.68;37.09;102240.59;5024377;28;20132;-79
2021/09/21 02:26:00;;;;;;;4.13;2.40;;;;;;;18.65;37.07;102244.47;5026337;28;20112;-79
2021/09/21 02:28:26;;;;;;;5.18;2.90;;;;;;;18.62;37.55;102237.31;5025532;28;20049;-79
2021/09/21 02:30:53;;;;;;;4.57;2.55;;;;;;;18.61;37.00;102234.72;5045956;28;20088;-79
2021/09/21 02:33:19;;;;;;;3.90;2.90;;;;;;;18.57;37.45;102241.44;5025002;28;20053;-79
2021/09/21 02:35:46;;;;;;;4.07;2.50;;;;;;;18.54;37.55;102231.50;5026419;28;20442;-79
2021/09/21 02:38:12;;;;;;;3.60;2.45;;;;;;;18.54;37.48;102227.88;5025304;28;20506;-79
2021/09/21 02:40:39;;;;;;;4.25;2.70;;;;;;;18.52;37.39;102225.28;5025182;28;20088;-79
2021/09/21 02:43:06;;;;;;;4.38;2.90;;;;;;;18.51;37.74;102225.38;5024988;28;20084;-78
2021/09/21 02:45:32;;;;;;;6.78;2.70;;;;;;;18.50;37.35;102226.38;5027599;28;20075;-79
2021/09/21 02:47:59;;;;;;;4.57;2.83;;;;;;;18.47;37.65;102230.25;5007247;28;20095;-79
2021/09/21 02:50:25;;;;;;;4.03;2.50;;;;;;;18.48;37.42;102234.75;5026118;28;20682;-78
2021/09/21 02:52:52;;;;;;;5.25;2.72;;;;;;;18.46;37.48;102239.47;5007151;28;20128;-79
2021/09/21 02:55:19;;;;;;;5.13;3.03;;;;;;;18.47;37.51;102240.38;5026585;28;20056;-79
2021/09/21 02:57:45;;;;;;;4.63;2.80;;;;;;;18.47;37.81;102240.38;5020626;28;20491;-79
2021/09/21 03:00:17;;;;;;;4.70;2.72;;;;;;;18.49;37.60;102238.38;5041200;28;20045;-79
2021/09/21 03:02:45;;;;;;;4.80;2.58;;;;;;;18.44;37.83;102244.25;5035125;28;20051;-79
2021/09/21 03:05:17;;;;;;;4.88;2.88;;;;;;;18.47;37.45;102237.63;5026065;28;20049;-77
2021/09/21 03:08:03;;;;;;;5.50;2.72;;;;;;;18.46;37.83;102235.84;5007133;28;20120;-76
2021/09/21 03:11:38;;;;;;;6.05;2.78;;;;;;;18.45;37.84;102240.47;5008799;28;20057;-78
2021/09/21 03:18:37;;;;;;;4.57;2.63;;;;;;;18.45;37.59;102237.72;5024328;28;20133;-78
2021/09/21 03:21:04;;;;;;;3.88;2.67;;;;;;;18.46;37.61;102233.97;5025767;28;20049;-78
2021/09/21 03:23:31;;;;;;;4.95;2.80;;;;;;;18.46;37.61;102235.84;5024634;28;20582;-78
2021/09/21 03:25:58;;;;;;;3.90;2.47;;;;;;;18.46;37.71;102238.59;5025408;28;20409;-78
2021/09/21 03:28:24;;;;;;;4.53;2.90;;;;;;;18.46;37.71;102244.09;5024047;28;20407;-78
2021/09/21 03:30:51;;;;;;;4.72;2.50;;;;;;;18.46;37.95;102249.59;5007822;28;20073;-77
2021/09/21 03:33:17;;;;;;;5.97;2.92;;;;;;;18.47;37.74;102251.38;5007043;28;20054;-79
2021/09/21 03:35:44;;;;;;;4.78;2.75;;;;;;;18.46;37.94;102263.34;5025309;28;20152;-78
2021/09/21 03:38:11;;;;;;;4.55;3.13;;;;;;;18.45;37.98;102262.47;5024529;28;20144;-78
2021/09/21 03:40:37;;;;;;;4.45;2.88;;;;;;;18.45;37.77;102267.97;5008097;28;20085;-78
2021/09/21 03:43:04;;;;;;;4.57;2.80;;;;;;;18.43;38.05;102275.50;5023527;28;20128;-78
2021/09/21 03:45:31;;;;;;;5.55;3.05;;;;;;;18.42;37.77;102267.34;5007963;28;20136;-78
2021/09/21 03:47:58;;;;;;;5.38;3.13;;;;;;;18.41;37.75;102271.09;5024393;28;20124;-78
2021/09/21 03:50:27;;;;;;;5.45;3.08;;;;;;;18.38;38.24;102274.94;5025950;28;20124;-78
2021/09/21 03:52:53;;;;;;;5.10;2.47;;;;;;;18.37;37.94;102280.56;5024303;28;20611;-78
2021/09/21 03:55:20;;;;;;;4.40;2.88;;;;;;;18.36;38.02;102285.22;5007984;28;20053;-77
2021/09/21 03:57:47;;;;;;;4.35;2.80;;;;;;;18.34;38.48;102287.19;5006645;28;20487;-78
2021/09/21 04:00:14;;;;;;;4.82;2.90;;;;;;;18.32;38.08;102294.69;5024808;28;20052;-77
2021/09/21 04:02:41;;;;;;;4.28;2.95;;;;;;;18.30;38.35;102299.41;5006725;28;20443;-78
2021/09/21 04:05:09;;;;;;;4.28;3.10;;;;;;;18.28;38.24;102306.03;5008211;28;20060;-77
2021/09/21 04:07:35;;;;;;;4.80;2.88;;;;;;;18.25;38.52;102309.91;5023958;28;20056;-77
2021/09/21 04:10:03;;;;;;;5.97;2.92;;;;;;;18.23;38.35;102312.75;5025245;28;20076;-78
2021/09/21 04:12:30;;;;;;;4.28;2.78;;;;;;;18.20;38.32;102321.22;5006969;28;20144;-78
2021/09/21 04:14:57;;;;;;;6.10;3.42;;;;;;;18.17;38.15;102324.22;5007487;28;20053;-77
2021/09/21 04:17:24;;;;;;;4.85;3.13;;;;;;;18.15;38.36;102330.81;5023604;28;20499;-77
2021/09/21 04:19:50;;;;;;;4.72;2.97;;;;;;;18.14;38.59;102337.31;5025129;28;20045;-77
2021/09/21 04:22:16;;;;;;;4.82;3.17;;;;;;;18.10;38.51;102331.19;5007629;28;20049;-77
2021/09/21 04:24:43;;;;;;;5.10;2.88;;;;;;;18.08;38.57;102327.66;5007048;28;20571;-78
2021/09/21 04:27:10;;;;;;;5.05;2.88;;;;;;;18.06;38.60;102335.13;5024482;28;20053;-77
2021/09/21 04:29:37;;;;;;;4.93;3.13;;;;;;;18.05;38.65;102343.50;5036861;28;20128;-77
2021/09/21 04:32:04;;;;;;;4.20;2.67;;;;;;;18.04;38.78;102344.47;5025294;28;20093;-77
2021/09/21 04:34:31;;;;;;;4.38;2.75;;;;;;;18.03;38.69;102348.25;5024050;28;20128;-78
2021/09/21 04:36:59;;;;;;;5.93;3.35;;;;;;;18.04;38.33;102348.13;5027985;28;20053;-77
2021/09/21 04:39:27;;;;;;;4.47;3.03;;;;;;;18.02;38.63;102352.88;5027632;28;20152;-77
2021/09/21 04:41:53;;;;;;;5.63;3.10;;;;;;;18.00;38.74;102354.84;5028398;28;20064;-78
2021/09/21 04:44:20;;;;;;;4.50;3.30;;;;;;;17.98;38.20;102356.81;5009857;28;20406;-79
2021/09/21 04:46:46;;;;;;;4.65;3.05;;;;;;;17.96;38.31;102357.91;5027759;28;20132;-77
2021/09/21 04:49:13;;;;;;;4.43;2.90;;;;;;;17.93;38.10;102361.78;5027507;28;20388;-77
2021/09/21 04:51:41;;;;;;;4.97;2.83;;;;;;;17.91;38.48;102358.28;5028300;28;20061;-77
2021/09/21 04:54:08;;;;;;;4.47;3.10;;;;;;;17.89;38.36;102360.25;5013944;28;20487;-78
2021/09/21 04:56:34;;;;;;;4.68;3.17;;;;;;;17.87;38.39;102365.00;5010267;28;20137;-77
2021/09/21 04:59:01;;;;;;;4.93;3.38;;;;;;;17.85;38.27;102370.59;5027087;28;20056;-78
2021/09/21 05:01:28;;;;;;;4.72;3.00;;;;;;;17.85;38.24;102377.97;5010622;28;20762;-77
2021/09/21 05:03:54;;;;;;;4.78;2.95;;;;;;;17.85;38.29;102387.09;5027333;28;20045;-78
2021/09/21 05:06:21;;;;;;;5.82;2.97;;;;;;;17.84;38.38;102387.19;5027379;28;20046;-78
2021/09/21 05:08:47;;;;;;;4.95;2.92;;;;;;;17.85;38.38;102384.34;5027125;28;20466;-78
2021/09/21 05:11:14;;;;;;;4.45;3.05;;;;;;;17.87;38.44;102392.47;5027939;28;20141;-77
2021/09/21 05:13:40;;;;;;;3.92;2.70;;;;;;;17.88;38.69;102384.09;5026900;28;20125;-77
2021/09/21 05:16:07;;;;;;;4.35;3.00;;;;;;;17.91;38.44;102384.88;4990642;28;20046;-77
2021/09/21 05:18:34;;;;;;;5.25;3.38;;;;;;;17.94;38.22;102388.28;5007353;28;20522;-77
2021/09/21 05:21:00;;;;;;;4.97;2.83;;;;;;;17.96;38.46;102394.53;5026352;28;20088;-78
2021/09/21 05:23:27;;;;;;;4.80;3.15;;;;;;;17.98;38.11;102400.78;5026569;28;20759;-78
2021/09/21 05:25:53;;;;;;;5.22;3.00;;;;;;;17.99;38.12;102393.44;5027346;28;20498;-77
2021/09/21 05:28:20;;;;;;;4.75;3.00;;;;;;;18.01;38.09;102396.94;5026763;28;20055;-77
2021/09/21 05:30:46;;;;;;;5.95;3.60;;;;;;;18.04;38.35;102404.94;5027403;28;20548;-77
2021/09/21 05:33:13;;;;;;;5.60;3.45;;;;;;;18.04;38.24;102410.44;5026427;28;20046;-78
2021/09/21 05:35:39;;;;;;;4.45;2.88;;;;;;;18.06;38.09;102417.59;5027831;28;20383;-77
2021/09/21 05:38:06;;;;;;;5.15;3.33;;;;;;;18.07;38.07;102419.34;5026537;28;20140;-78
2021/09/21 05:40:33;;;;;;;4.90;3.45;;;;;;;18.08;38.31;102414.75;5027776;28;20104;-78
2021/09/21 05:42:59;;;;;;;5.03;3.35;;;;;;;18.09;37.99;102403.63;5026364;28;20295;-77
2021/09/21 05:45:26;;;;;;;4.03;2.80;;;;;;;18.10;38.12;102410.91;5009872;28;20077;-77
2021/09/21 05:47:54;;;;;;;4.70;3.00;;;;;;;18.13;38.27;102413.41;5008513;28;20541;-78
2021/09/21 05:50:21;;;;;;;6.13;3.20;;;;;;;18.15;38.05;102413.28;5027260;28;20053;-77
2021/09/21 05:52:48;;;;;;;4.82;2.92;;;;;;;18.15;38.04;102403.19;5025735;28;20065;-77
2021/09/21 05:55:15;;;;;;;6.68;3.28;;;;;;;18.17;38.24;102400.31;5009921;28;20103;-78
2021/09/21 05:57:43;;;;;;;5.68;3.17;;;;;;;18.17;38.37;102397.56;5029217;28;20131;-77
2021/09/21 06:00:11;;;;;;;4.90;3.05;;;;;;;18.19;38.46;102414.84;5014171;28;20057;-78
2021/09/21 06:02:37;;;;;;;6.13;3.22;;;;;;;18.18;38.08;102424.06;5026050;28;20056;-77
2021/09/21 06:05:05;;;;;;;5.53;3.10;;;;;;;18.19;38.01;102428.59;5009100;28;20049;-78
2021/09/21 06:07:32;;;;;;;7.30;3.80;;;;;;;18.18;38.34;102424.97;5008079;28;20100;-78
2021/09/21 06:09:59;;;;;;;5.80;3.22;;;;;;;18.18;38.21;102432.31;5009571;28;20085;-75
2021/09/21 06:12:25;;;;;;;4.32;3.00;;;;;;;18.18;38.28;102435.06;5026090;28;20491;-77
2021/09/21 06:14:52;;;;;;;5.88;3.13;;;;;;;18.16;38.00;102442.53;5009217;28;20081;-77
2021/09/21 06:17:18;;;;;;;5.55;3.13;;;;;;;18.16;38.32;102442.53;5008266;28;20052;-75
2021/09/21 06:19:45;;;;;;;5.35;3.35;;;;;;;18.15;38.15;102443.53;5009178;28;20122;-76
2021/09/21 06:22:11;;;;;;;5.30;3.38;;;;;;;18.12;38.20;102441.88;5026899;28;20133;-77
2021/09/21 06:24:38;;;;;;;6.88;3.65;;;;;;;18.11;37.88;102451.16;5025783;28;20072;-78
2021/09/21 06:27:04;;;;;;;5.82;3.35;;;;;;;18.08;37.88;102456.84;5027193;28;20077;-76
2021/09/21 06:29:31;;;;;;;5.38;3.50;;;;;;;18.07;38.00;102448.72;5016752;28;20048;-77
2021/09/21 06:31:58;;;;;;;7.10;3.85;;;;;;;18.06;37.91;102446.94;5009842;28;20483;-76
2021/09/21 06:34:24;;;;;;;5.50;3.65;;;;;;;18.03;37.98;102447.19;5025798;28;20140;-77
2021/09/21 06:36:53;;;;;;;5.78;3.22;;;;;;;18.02;38.24;102442.69;5026325;28;20137;-70
2021/09/21 06:39:22;;;;;;;5.10;3.33;;;;;;;18.02;37.82;102440.81;5025095;28;20546;-68
2021/09/21 06:41:48;;;;;;;5.60;3.65;;;;;;;17.99;38.51;102451.16;5025734;28;20132;-70
2021/09/21 06:44:15;;;;;;;5.97;3.03;;;;;;;17.99;38.44;102457.53;5025034;28;20431;-70
2021/09/21 06:46:41;;;;;;;5.70;3.80;;;;;;;17.99;38.45;102452.03;5025597;28;20084;-70
2021/09/21 06:49:08;;;;;;;6.75;3.55;;;;;;;18.00;38.83;102470.28;5024758;28;20058;-69
2021/09/21 06:51:35;;;;;;;5.38;3.53;;;;;;;18.00;38.59;102474.88;5026259;28;20496;-73
2021/09/21 06:54:01;;;;;;;6.22;3.78;;;;;;;18.00;38.46;102486.75;5025077;28;20265;-77
2021/09/21 06:56:28;;;;;;;5.65;3.42;;;;;;;18.00;38.19;102483.13;5008093;28;20124;-77
2021/09/21 06:58:56;;;;;;;5.13;3.22;;;;;;;18.01;38.21;102485.78;5024422;28;20130;-77
2021/09/21 07:01:25;;;;;;;5.68;3.65;;;;;;;18.01;38.34;102483.03;5008422;28;20158;-77
2021/09/21 07:03:51;;;;;;;4.93;3.15;;;;;;;18.01;38.61;102484.91;5024973;28;20107;-77
2021/09/21 07:06:18;;;;;;;5.60;3.13;;;;;;;18.03;38.25;102481.06;5025469;28;20053;-77
2021/09/21 07:08:45;;;;;;;5.43;3.55;;;;;;;18.04;38.49;102490.16;5007151;28;20073;-77
2021/09/21 07:11:12;;;;;;;5.30;3.33;;;;;;;18.07;38.46;102492.69;5026169;28;20132;-77
2021/09/21 07:13:39;;;;;;;5.10;3.08;;;;;;;18.09;38.40;102498.97;5024823;28;20060;-77
2021/09/21 07:16:07;;;;;;;5.88;3.30;;;;;;;18.11;38.66;102497.88;5023556;28;20337;-77
2021/09/21 07:18:33;;;;;;;6.10;3.72;;;;;;;18.14;38.29;102508.63;5006947;28;20049;-77
2021/09/21 07:21:00;;;;;;;5.22;3.10;;;;;;;18.17;38.44;102505.66;5008425;28;20533;-77
2021/09/21 07:23:26;;;;;;;5.75;3.15;;;;;;;18.19;38.21;102506.44;5025035;28;20056;-77
2021/09/21 07:25:53;;;;;;;5.32;3.38;;;;;;;18.23;38.11;102515.31;5007725;28;20133;-77
2021/09/21 07:28:19;;;;;;;5.95;3.25;;;;;;;18.24;38.09;102511.59;5032132;28;20072;-77
2021/09/21 07:30:46;;;;;;;5.20;3.13;;;;;;;18.26;38.30;102512.38;5032087;28;20041;-77
2021/09/21 07:33:15;;;;;;;5.20;3.22;;;;;;;18.30;38.37;102516.63;5024862;28;20587;-77
2021/09/21 07:35:42;;;;;;;6.80;3.28;;;;;;;18.34;38.36;102525.56;5007717;28;20144;-77
2021/09/21 07:38:10;;;;;;;5.57;3.00;;;;;;;18.36;38.40;102526.34;5024406;28;20049;-77
2021/09/21 07:40:36;;;;;;;4.28;3.10;;;;;;;18.40;38.51;102523.22;5024252;28;20136;-77
2021/09/21 07:43:05;;;;;;;5.38;3.05;;;;;;;18.45;38.03;102522.88;5006577;28;20060;-75
2021/09/21 07:45:33;;;;;;;4.95;2.90;;;;;;;18.49;38.61;102522.56;5025162;28;20418;-74
2021/09/21 07:48:00;;;;;;;5.18;2.72;;;;;;;18.54;38.13;102519.44;5006560;28;20080;-74
2021/09/21 07:50:27;;;;;;;5.55;2.80;;;;;;;18.59;38.16;102526.44;5025472;28;20132;-74
2021/09/21 07:52:55;;;;;;;4.25;2.38;;;;;;;18.63;38.47;102524.31;5024409;28;20057;-73
2021/09/21 07:55:21;;;;;;;4.63;2.42;;;;;;;18.68;38.24;102523.97;5007660;28;20045;-74
2021/09/21 07:57:48;;;;;;;5.10;2.72;;;;;;;18.73;38.02;102519.00;5009569;28;20071;-74
2021/09/21 08:00:17;;;;;;;4.68;2.55;;;;;;;18.78;37.89;102525.03;5037791;28;20045;-74
2021/09/21 08:02:44;;;;;;;3.72;2.28;;;;;;;18.80;38.10;102523.06;5024301;28;20491;-74
2021/09/21 08:05:12;;;;;;;4.32;2.63;;;;;;;18.86;37.94;102526.22;5024958;28;20148;-73
2021/09/21 08:07:41;;;;;;;4.05;2.33;;;;;;;18.90;37.74;102533.25;5023984;28;20586;-74
2021/09/21 08:10:08;;;;;;;3.88;2.35;;;;;;;18.95;37.75;102536.53;5008234;28;20057;-74
2021/09/21 08:12:35;;;;;;;5.55;2.20;;;;;;;18.98;37.42;102528.06;5010449;28;20307;-74
2021/09/21 08:15:01;;;;;;;3.22;1.85;;;;;;;19.03;37.65;102527.69;5011232;28;20136;-73
2021/09/21 08:17:28;;;;;;;3.90;1.98;;;;;;;19.08;37.40;102531.00;5027664;28;20469;-74
2021/09/21 08:19:55;;;;;;;4.47;2.03;;;;;;;19.14;37.17;102541.53;5011230;28;20085;-74
2021/09/21 08:22:23;;;;;;;2.47;1.60;;;;;;;19.18;37.22;102537.56;5027709;28;20112;-74
2021/09/21 08:24:50;;;;;;;3.38;1.73;;;;;;;19.23;37.22;102531.69;5010817;28;20570;-74
2021/09/21 08:27:16;;;;;;;3.83;1.98;;;;;;;19.27;36.78;102538.72;5028311;28;20049;-74
2021/09/21 08:29:43;;;;;;;3.35;1.75;;;;;;;19.31;37.03;102535.59;5038873;28;20068;-74
2021/09/21 08:32:10;;;;;;;3.38;1.88;;;;;;;19.35;36.77;102533.50;5046811;28;20450;-74
2021/09/21 08:34:36;;;;;;;3.33;1.80;;;;;;;19.39;36.44;102549.66;5027922;28;20541;-73
2021/09/21 08:37:03;;;;;;;5.07;1.90;;;;;;;19.43;36.52;102543.94;5028284;28;20063;-74
2021/09/21 08:39:30;;;;;;;2.65;1.67;;;;;;;19.49;36.86;102544.38;5027249;28;20324;-74
2021/09/21 08:41:58;;;;;;;2.80;1.55;;;;;;;19.54;36.52;102547.63;5011063;28;20053;-74
2021/09/21 08:44:25;;;;;;;2.72;1.70;;;;;;;19.58;36.53;102549.16;5009476;28;20128;-74
2021/09/21 08:46:52;;;;;;;3.53;1.73;;;;;;;19.63;36.22;102557.94;5011021;28;20529;-73
2021/09/21 08:49:19;;;;;;;2.80;1.52;;;;;;;19.69;35.87;102556.56;5009789;28;20744;-72
2021/09/21 08:51:45;;;;;;;2.65;1.40;;;;;;;19.73;36.37;102564.50;5010384;28;20132;-74
2021/09/21 08:54:12;;;;;;;3.50;1.70;;;;;;;19.80;36.25;102564.88;5009700;28;20140;-74
2021/09/21 08:56:40;;;;;;;3.53;1.40;;;;;;;19.87;35.87;102568.03;5027910;28;20089;-73
2021/09/21 08:59:12;;;;;;;3.40;1.60;;;;;;;19.93;35.60;102564.81;5027313;28;20150;-73
2021/09/21 09:01:48;;;;;;;2.08;1.33;;;;;;;20.01;35.34;102576.09;5028997;28;20049;-74
2021/09/21 09:04:17;;;;;;;2.60;1.40;;;;;;;20.08;36.16;102572.75;5015050;28;20057;-73
2021/09/21 09:06:48;;;;;;;3.17;1.75;;;;;;;20.14;35.67;102575.00;5027803;28;20061;-74
2021/09/21 09:09:17;;;;;;;3.33;1.50;;;;;;;20.24;35.25;102557.72;5009439;28;20159;-73
2021/09/21 09:11:49;;;;;;;2.30;1.40;;;;;;;20.33;34.88;102556.97;5026570;28;20133;-75
2021/09/21 09:14:23;;;;;;;2.97;1.38;;;;;;;20.40;34.67;102561.00;5009435;28;20080;-74
2021/09/21 09:16:54;;;;;;;2.35;1.33;;;;;;;20.49;34.97;102565.78;5026794;28;20095;-74
2021/09/21 09:19:27;;;;;;;2.67;1.48;;;;;;;20.54;34.97;102574.56;5027053;28;20050;-74
2021/09/21 09:21:54;;;;;;;2.70;1.50;;;;;;;20.63;34.81;102573.81;5027373;28;20046;-74
2021/09/21 09:24:20;;;;;;;2.90;1.40;;;;;;;20.72;34.77;102570.28;5026362;28;20049;-74
2021/09/21 09:26:47;;;;;;;2.85;1.42;;;;;;;20.83;34.27;102572.16;5027126;28;20136;-73
2021/09/21 09:29:15;;;;;;;2.58;1.20;;;;;;;20.90;33.56;102570.66;5033680;28;20507;-74
2021/09/21 09:31:44;;;;;;;2.47;1.60;;;;;;;20.99;33.51;102580.94;5026650;28;20491;-74
2021/09/21 09:34:12;;;;;;;2.67;1.50;;;;;;;21.06;33.74;102575.78;5009231;28;20053;-74
2021/09/21 09:37:00;;;;;;;2.47;1.20;;;;;;;21.15;32.44;102584.16;5027127;28;20570;-74
2021/09/21 09:39:29;;;;;;;2.97;1.30;;;;;;;21.23;32.82;102575.25;5026761;28;20095;-74
2021/09/21 09:41:58;;;;;;;3.17;1.40;;;;;;;21.30;32.33;102579.25;5027018;28;20064;-74
2021/09/21 09:44:27;;;;;;;2.72;1.48;;;;;;;21.34;31.82;102580.72;5025311;28;20079;-74
2021/09/21 09:47:02;;;;;;;2.72;1.60;;;;;;;21.39;32.01;102567.41;5025685;28;20045;-73
2021/09/21 09:49:33;;;;;;;2.65;1.38;;;;;;;21.43;32.17;102565.25;5026281;28;20055;-73
2021/09/21 09:52:18;;;;;;;2.28;1.50;;;;;;;21.50;31.88;102572.88;5027425;28;20049;-73
2021/09/21 09:54:47;;;;;;;2.47;1.40;;;;;;;21.55;32.18;102570.63;5008768;28;20049;-73
2021/09/21 09:57:14;;;;;;;2.00;1.48;;;;;;;21.62;32.54;102576.50;5026518;28;20172;-74
2021/09/21 09:59:42;;;;;;;3.15;1.70;;;;;;;21.69;32.70;102577.72;5033382;28;20145;-73
2021/09/21 10:02:09;;;;;;;3.70;1.65;;;;;;;21.77;32.28;102577.91;5026922;28;20085;-73
2021/09/21 10:04:39;;;;;;;3.15;1.60;;;;;;;21.86;31.90;102577.13;5025802;28;20050;-74
2021/09/21 10:07:06;;;;;;;2.95;1.60;;;;;;;21.93;32.37;102589.41;5026610;28;20069;-74
2021/09/21 10:09:33;;;;;;;3.55;1.52;;;;;;;22.00;31.86;102584.22;5008341;28;20384;-74
2021/09/21 10:12:00;;;;;;;3.60;1.60;;;;;;;22.10;31.33;102587.06;5009247;28;20422;-74
2021/09/21 10:14:27;;;;;;;3.00;1.50;;;;;;;22.17;31.57;102591.03;5025798;28;20136;-73
2021/09/21 10:17:05;;;;;;;2.90;1.80;;;;;;;22.28;30.47;102582.69;5026231;28;20063;-73
2021/09/21 10:19:34;;;;;;;3.67;1.70;;;;;;;22.33;31.78;102581.25;5025768;28;20046;-73
2021/09/21 10:22:01;;;;;;;3.25;1.60;;;;;;;22.44;31.45;102574.75;5026407;28;20049;-73
2021/09/21 10:24:42;;;;;;;2.08;1.27;;;;;;;22.59;31.13;102583.56;5025625;28;20045;-74
2021/09/21 10:27:16;;;;;;;3.88;1.63;;;;;;;22.68;30.37;102580.84;5008692;28;20049;-74
2021/09/21 10:29:43;;;;;;;3.55;1.60;;;;;;;22.76;31.13;102586.59;5024121;28;20042;-74
2021/09/21 10:32:16;;;;;;;3.25;1.80;;;;;;;22.88;30.68;102590.16;5026107;28;20060;-74
2021/09/21 10:34:46;;;;;;;3.20;1.50;;;;;;;22.94;30.46;102585.94;5025092;28;20037;-74
2021/09/21 10:37:16;;;;;;;4.07;1.83;;;;;;;23.01;30.35;102585.22;5026230;28;20152;-74
2021/09/21 10:39:43;;;;;;;2.70;1.60;;;;;;;23.06;30.37;102585.66;5025536;28;20062;-73
2021/09/21 10:42:20;;;;;;;2.92;1.60;;;;;;;23.14;29.50;102585.81;5026047;28;20050;-73
2021/09/21 10:44:49;;;;;;;3.17;1.60;;;;;;;23.20;30.50;102577.97;5008164;28;20055;-73
2021/09/21 10:47:28;;;;;;;3.60;1.70;;;;;;;23.28;28.86;102572.59;5024782;28;20136;-74
2021/09/21 10:50:08;;;;;;;2.65;1.50;;;;;;;23.35;29.26;102584.84;5007849;28;20409;-72
2021/09/21 10:52:35;;;;;;;3.63;1.70;;;;;;;23.39;30.01;102578.03;5024674;28;20053;-73
2021/09/21 10:55:06;;;;;;;3.00;1.70;;;;;;;23.50;29.49;102586.22;5008611;28;20135;-74
2021/09/21 10:57:34;;;;;;;3.22;1.98;;;;;;;23.52;29.51;102587.81;5024531;28;20156;-73
2021/09/21 11:00:12;;;;;;;3.58;2.17;;;;;;;23.62;29.47;102586.97;5034349;28;20136;-73
2021/09/21 11:02:41;;;;;;;3.47;1.50;;;;;;;23.64;29.51;102580.22;5007546;28;20191;-73
2021/09/21 11:05:15;;;;;;;3.78;1.65;;;;;;;23.70;29.75;102576.88;5008206;28;20095;-74
2021/09/21 11:07:55;;;;;;;2.90;1.65;;;;;;;23.77;28.99;102575.28;5024706;28;20103;-74
2021/09/21 11:10:30;;;;;;;2.95;1.52;;;;;;;23.81;28.55;102571.16;5026434;28;20091;-74
2021/09/21 11:12:57;;;;;;;2.63;1.60;;;;;;;23.84;29.59;102562.56;5007278;28;20095;-74
2021/09/21 11:15:27;;;;;;;3.55;1.70;;;;;;;23.92;29.43;102572.91;5025741;28;20050;-74
2021/09/21 11:18:09;;;;;;;2.72;1.90;;;;;;;23.97;28.32;102573.34;5024211;28;20120;-74
2021/09/21 11:20:50;;;;;;;3.38;1.60;;;;;;;23.98;28.39;102566.78;5025568;28;20049;-74
2021/09/21 11:23:18;;;;;;;2.95;1.50;;;;;;;24.00;28.88;102566.63;5007020;28;20570;-74
2021/09/21 11:25:46;;;;;;;2.65;1.55;;;;;;;24.02;29.15;102565.47;5025291;28;20498;-73
2021/09/21 11:28:14;;;;;;;3.30;1.70;;;;;;;24.04;28.47;102565.31;5030917;28;20048;-73
2021/09/21 11:30:43;;;;;;;3.80;1.70;;;;;;;24.07;28.37;102565.88;5013291;28;20496;-73
2021/09/21 11:33:21;;;;;;;3.78;1.85;;;;;;;24.12;27.99;102576.56;5024430;28;20049;-74
2021/09/21 11:35:51;;;;;;;3.05;1.50;;;;;;;24.10;28.37;102570.28;5025235;28;20095;-73
2021/09/21 11:38:18;;;;;;;3.67;1.65;;;;;;;24.10;28.78;102571.16;5024598;28;20041;-74
2021/09/21 11:40:46;;;;;;;4.03;1.73;;;;;;;24.14;28.42;102574.47;5025140;28;20168;-73